sensor_id;sensor_type;location;lat;lon;timestamp;P1;durP1;ratioP1;P2;durP2;ratioP2
81896;SDS011;71360;43.506;1.500;2024-02-21T00:01:35;9.93;;;4.30;;
81896;SDS011;71360;43.506;1.500;2024-02-21T00:04:00;10.03;;;4.50;;
81896;SDS011;71360;43.506;1.500;2024-02-21T00:06:26;11.63;;;4.10;;
81896;SDS011;71360;43.506;1.500;2024-02-21T00:08:51;12.95;;;4.93;;
81896;SDS011;71360;43.506;1.500;2024-02-21T00:11:17;10.10;;;4.07;;
81896;SDS011;71360;43.506;1.500;2024-02-21T00:13:42;12.77;;;4.50;;
81896;SDS011;71360;43.506;1.500;2024-02-21T00:16:08;11.35;;;4.18;;
81896;SDS011;71360;43.506;1.500;2024-02-21T00:18:33;9.30;;;4.10;;
81896;SDS011;71360;43.506;1.500;2024-02-21T00:20:59;14.43;;;4.30;;
81896;SDS011;71360;43.506;1.500;2024-02-21T00:23:26;10.85;;;3.70;;
81896;SDS011;71360;43.506;1.500;2024-02-21T00:25:52;10.43;;;4.23;;
81896;SDS011;71360;43.506;1.500;2024-02-21T00:28:17;10.35;;;3.78;;
81896;SDS011;71360;43.506;1.500;2024-02-21T00:30:43;9.90;;;3.87;;
81896;SDS011;71360;43.506;1.500;2024-02-21T00:33:08;12.17;;;4.60;;
81896;SDS011;71360;43.506;1.500;2024-02-21T00:35:34;10.77;;;4.68;;
81896;SDS011;71360;43.506;1.500;2024-02-21T00:37:59;19.00;;;6.80;;
81896;SDS011;71360;43.506;1.500;2024-02-21T00:40:25;23.70;;;6.63;;
81896;SDS011;71360;43.506;1.500;2024-02-21T00:42:50;15.43;;;5.40;;
81896;SDS011;71360;43.506;1.500;2024-02-21T00:45:15;12.67;;;5.40;;
81896;SDS011;71360;43.506;1.500;2024-02-21T00:47:41;14.63;;;5.25;;
81896;SDS011;71360;43.506;1.500;2024-02-21T00:50:06;14.47;;;5.60;;
81896;SDS011;71360;43.506;1.500;2024-02-21T00:52:32;15.00;;;5.85;;
81896;SDS011;71360;43.506;1.500;2024-02-21T00:54:58;13.90;;;5.77;;
81896;SDS011;71360;43.506;1.500;2024-02-21T00:57:24;14.40;;;5.07;;
81896;SDS011;71360;43.506;1.500;2024-02-21T00:59:49;13.98;;;5.78;;
81896;SDS011;71360;43.506;1.500;2024-02-21T01:02:15;13.43;;;5.13;;
81896;SDS011;71360;43.506;1.500;2024-02-21T01:04:40;14.38;;;5.65;;
81896;SDS011;71360;43.506;1.500;2024-02-21T01:07:06;13.20;;;5.73;;
81896;SDS011;71360;43.506;1.500;2024-02-21T01:09:31;12.00;;;5.27;;
81896;SDS011;71360;43.506;1.500;2024-02-21T01:11:57;12.03;;;5.70;;
81896;SDS011;71360;43.506;1.500;2024-02-21T01:14:22;15.17;;;5.90;;
81896;SDS011;71360;43.506;1.500;2024-02-21T01:16:48;14.03;;;5.80;;
81896;SDS011;71360;43.506;1.500;2024-02-21T01:19:13;12.90;;;5.57;;
81896;SDS011;71360;43.506;1.500;2024-02-21T01:21:38;15.67;;;5.57;;
81896;SDS011;71360;43.506;1.500;2024-02-21T01:24:04;12.73;;;5.70;;
81896;SDS011;71360;43.506;1.500;2024-02-21T01:26:29;16.57;;;6.07;;
81896;SDS011;71360;43.506;1.500;2024-02-21T01:28:55;15.37;;;5.57;;
81896;SDS011;71360;43.506;1.500;2024-02-21T01:31:20;11.60;;;5.93;;
81896;SDS011;71360;43.506;1.500;2024-02-21T01:33:46;13.45;;;6.20;;
81896;SDS011;71360;43.506;1.500;2024-02-21T01:36:11;14.27;;;5.90;;
81896;SDS011;71360;43.506;1.500;2024-02-21T01:38:37;14.88;;;6.05;;
81896;SDS011;71360;43.506;1.500;2024-02-21T01:41:02;15.20;;;5.70;;
81896;SDS011;71360;43.506;1.500;2024-02-21T01:43:28;12.10;;;6.10;;
81896;SDS011;71360;43.506;1.500;2024-02-21T01:45:54;13.73;;;6.28;;
81896;SDS011;71360;43.506;1.500;2024-02-21T01:48:24;19.97;;;6.60;;
81896;SDS011;71360;43.506;1.500;2024-02-21T01:50:50;17.75;;;6.15;;
81896;SDS011;71360;43.506;1.500;2024-02-21T01:53:17;15.02;;;6.50;;
81896;SDS011;71360;43.506;1.500;2024-02-21T01:55:48;17.75;;;6.18;;
81896;SDS011;71360;43.506;1.500;2024-02-21T02:01:29;12.93;;;5.90;;
81896;SDS011;71360;43.506;1.500;2024-02-21T02:03:54;14.23;;;5.77;;
81896;SDS011;71360;43.506;1.500;2024-02-21T02:06:20;13.48;;;5.70;;
81896;SDS011;71360;43.506;1.500;2024-02-21T02:08:45;12.40;;;5.90;;
81896;SDS011;71360;43.506;1.500;2024-02-21T02:11:13;14.77;;;5.65;;
81896;SDS011;71360;43.506;1.500;2024-02-21T02:13:39;15.00;;;5.73;;
81896;SDS011;71360;43.506;1.500;2024-02-21T02:16:04;14.65;;;5.30;;
81896;SDS011;71360;43.506;1.500;2024-02-21T02:18:30;13.97;;;5.80;;
81896;SDS011;71360;43.506;1.500;2024-02-21T02:20:56;14.43;;;5.63;;
81896;SDS011;71360;43.506;1.500;2024-02-21T02:23:29;12.30;;;5.93;;
81896;SDS011;71360;43.506;1.500;2024-02-21T02:25:54;14.77;;;6.07;;
81896;SDS011;71360;43.506;1.500;2024-02-21T02:28:21;13.68;;;5.80;;
81896;SDS011;71360;43.506;1.500;2024-02-21T02:30:47;13.57;;;5.70;;
81896;SDS011;71360;43.506;1.500;2024-02-21T02:33:13;11.97;;;5.30;;
81896;SDS011;71360;43.506;1.500;2024-02-21T02:35:38;14.10;;;5.65;;
81896;SDS011;71360;43.506;1.500;2024-02-21T02:38:04;14.77;;;5.50;;
81896;SDS011;71360;43.506;1.500;2024-02-21T02:40:30;14.30;;;5.93;;
81896;SDS011;71360;43.506;1.500;2024-02-21T02:42:56;14.13;;;6.10;;
81896;SDS011;71360;43.506;1.500;2024-02-21T02:45:22;11.90;;;5.90;;
81896;SDS011;71360;43.506;1.500;2024-02-21T02:47:49;13.65;;;5.95;;
81896;SDS011;71360;43.506;1.500;2024-02-21T02:50:15;13.87;;;6.27;;
81896;SDS011;71360;43.506;1.500;2024-02-21T02:52:40;13.85;;;6.20;;
81896;SDS011;71360;43.506;1.500;2024-02-21T02:55:06;13.80;;;6.00;;
81896;SDS011;71360;43.506;1.500;2024-02-21T02:57:32;12.48;;;6.22;;
81896;SDS011;71360;43.506;1.500;2024-02-21T02:59:58;16.35;;;6.18;;
81896;SDS011;71360;43.506;1.500;2024-02-21T03:02:23;16.93;;;6.17;;
81896;SDS011;71360;43.506;1.500;2024-02-21T03:04:49;16.00;;;6.07;;
81896;SDS011;71360;43.506;1.500;2024-02-21T03:07:14;17.25;;;6.40;;
81896;SDS011;71360;43.506;1.500;2024-02-21T03:09:40;17.00;;;6.07;;
81896;SDS011;71360;43.506;1.500;2024-02-21T03:12:07;14.90;;;6.47;;
81896;SDS011;71360;43.506;1.500;2024-02-21T03:14:33;13.57;;;6.07;;
81896;SDS011;71360;43.506;1.500;2024-02-21T03:16:59;12.83;;;5.87;;
81896;SDS011;71360;43.506;1.500;2024-02-21T03:19:25;13.48;;;6.15;;
81896;SDS011;71360;43.506;1.500;2024-02-21T03:21:51;14.83;;;5.47;;
81896;SDS011;71360;43.506;1.500;2024-02-21T03:24:18;15.48;;;5.75;;
81896;SDS011;71360;43.506;1.500;2024-02-21T03:26:43;14.38;;;5.57;;
81896;SDS011;71360;43.506;1.500;2024-02-21T03:29:10;16.63;;;6.57;;
81896;SDS011;71360;43.506;1.500;2024-02-21T03:31:36;17.27;;;6.30;;
81896;SDS011;71360;43.506;1.500;2024-02-21T03:34:01;15.73;;;7.45;;
81896;SDS011;71360;43.506;1.500;2024-02-21T03:36:27;15.00;;;7.23;;
81896;SDS011;71360;43.506;1.500;2024-02-21T03:38:53;19.37;;;8.50;;
81896;SDS011;71360;43.506;1.500;2024-02-21T03:41:19;19.52;;;9.25;;
81896;SDS011;71360;43.506;1.500;2024-02-21T03:43:45;18.00;;;8.60;;
81896;SDS011;71360;43.506;1.500;2024-02-21T03:46:10;20.88;;;8.88;;
81896;SDS011;71360;43.506;1.500;2024-02-21T03:48:36;19.73;;;8.80;;
81896;SDS011;71360;43.506;1.500;2024-02-21T03:51:01;19.83;;;9.60;;
81896;SDS011;71360;43.506;1.500;2024-02-21T03:53:27;21.98;;;10.45;;
81896;SDS011;71360;43.506;1.500;2024-02-21T03:55:53;21.00;;;10.38;;
81896;SDS011;71360;43.506;1.500;2024-02-21T03:58:19;19.57;;;10.00;;
81896;SDS011;71360;43.506;1.500;2024-02-21T04:00:45;14.98;;;8.57;;
81896;SDS011;71360;43.506;1.500;2024-02-21T04:03:10;17.73;;;7.17;;
81896;SDS011;71360;43.506;1.500;2024-02-21T04:05:36;15.73;;;6.93;;
81896;SDS011;71360;43.506;1.500;2024-02-21T04:08:04;17.07;;;6.73;;
81896;SDS011;71360;43.506;1.500;2024-02-21T04:10:30;16.98;;;7.10;;
81896;SDS011;71360;43.506;1.500;2024-02-21T04:12:55;14.43;;;5.82;;
81896;SDS011;71360;43.506;1.500;2024-02-21T04:15:21;16.53;;;5.97;;
81896;SDS011;71360;43.506;1.500;2024-02-21T04:17:46;13.47;;;5.27;;
81896;SDS011;71360;43.506;1.500;2024-02-21T04:20:15;13.52;;;5.78;;
81896;SDS011;71360;43.506;1.500;2024-02-21T04:22:44;12.70;;;5.53;;
81896;SDS011;71360;43.506;1.500;2024-02-21T04:25:11;14.70;;;6.10;;
81896;SDS011;71360;43.506;1.500;2024-02-21T04:27:37;15.38;;;7.95;;
81896;SDS011;71360;43.506;1.500;2024-02-21T04:30:03;18.48;;;8.43;;
81896;SDS011;71360;43.506;1.500;2024-02-21T04:32:30;18.25;;;8.73;;
81896;SDS011;71360;43.506;1.500;2024-02-21T04:34:55;21.77;;;9.90;;
81896;SDS011;71360;43.506;1.500;2024-02-21T04:37:20;22.27;;;9.77;;
81896;SDS011;71360;43.506;1.500;2024-02-21T04:39:46;19.13;;;10.23;;
81896;SDS011;71360;43.506;1.500;2024-02-21T04:42:13;21.55;;;9.77;;
81896;SDS011;71360;43.506;1.500;2024-02-21T04:44:38;22.30;;;10.40;;
81896;SDS011;71360;43.506;1.500;2024-02-21T04:47:04;21.37;;;10.50;;
81896;SDS011;71360;43.506;1.500;2024-02-21T04:49:29;20.33;;;10.00;;
81896;SDS011;71360;43.506;1.500;2024-02-21T04:51:55;26.23;;;10.98;;
81896;SDS011;71360;43.506;1.500;2024-02-21T04:54:20;21.20;;;10.03;;
81896;SDS011;71360;43.506;1.500;2024-02-21T04:56:46;25.77;;;10.73;;
81896;SDS011;71360;43.506;1.500;2024-02-21T04:59:11;21.13;;;9.73;;
81896;SDS011;71360;43.506;1.500;2024-02-21T05:01:37;20.83;;;8.93;;
81896;SDS011;71360;43.506;1.500;2024-02-21T05:04:02;18.37;;;8.30;;
81896;SDS011;71360;43.506;1.500;2024-02-21T05:06:28;20.50;;;9.80;;
81896;SDS011;71360;43.506;1.500;2024-02-21T05:08:53;22.10;;;8.90;;
81896;SDS011;71360;43.506;1.500;2024-02-21T05:11:20;19.75;;;9.35;;
81896;SDS011;71360;43.506;1.500;2024-02-21T05:13:46;21.52;;;8.50;;
81896;SDS011;71360;43.506;1.500;2024-02-21T05:16:12;18.47;;;8.60;;
81896;SDS011;71360;43.506;1.500;2024-02-21T05:18:37;19.23;;;8.80;;
81896;SDS011;71360;43.506;1.500;2024-02-21T05:21:03;16.97;;;8.60;;
81896;SDS011;71360;43.506;1.500;2024-02-21T05:23:28;21.20;;;8.88;;
81896;SDS011;71360;43.506;1.500;2024-02-21T05:25:54;17.80;;;7.90;;
81896;SDS011;71360;43.506;1.500;2024-02-21T05:28:19;19.03;;;8.07;;
81896;SDS011;71360;43.506;1.500;2024-02-21T05:30:45;18.38;;;8.23;;
81896;SDS011;71360;43.506;1.500;2024-02-21T05:33:10;18.23;;;8.13;;
81896;SDS011;71360;43.506;1.500;2024-02-21T05:35:36;19.60;;;9.30;;
81896;SDS011;71360;43.506;1.500;2024-02-21T05:38:01;17.88;;;8.43;;
81896;SDS011;71360;43.506;1.500;2024-02-21T05:40:31;16.90;;;7.53;;
81896;SDS011;71360;43.506;1.500;2024-02-21T05:42:57;20.73;;;9.73;;
81896;SDS011;71360;43.506;1.500;2024-02-21T05:45:22;22.37;;;8.93;;
81896;SDS011;71360;43.506;1.500;2024-02-21T05:47:48;18.38;;;8.60;;
81896;SDS011;71360;43.506;1.500;2024-02-21T05:50:15;19.20;;;7.85;;
81896;SDS011;71360;43.506;1.500;2024-02-21T05:52:40;13.23;;;6.60;;
81896;SDS011;71360;43.506;1.500;2024-02-21T05:55:06;13.30;;;6.30;;
81896;SDS011;71360;43.506;1.500;2024-02-21T05:57:32;16.42;;;6.38;;
81896;SDS011;71360;43.506;1.500;2024-02-21T05:59:58;16.80;;;7.47;;
81896;SDS011;71360;43.506;1.500;2024-02-21T06:02:23;17.73;;;7.23;;
81896;SDS011;71360;43.506;1.500;2024-02-21T06:04:48;19.40;;;7.68;;
81896;SDS011;71360;43.506;1.500;2024-02-21T06:07:14;20.03;;;8.73;;
81896;SDS011;71360;43.506;1.500;2024-02-21T06:09:40;16.67;;;8.73;;
81896;SDS011;71360;43.506;1.500;2024-02-21T06:12:06;21.37;;;9.37;;
81896;SDS011;71360;43.506;1.500;2024-02-21T06:14:31;19.75;;;9.15;;
81896;SDS011;71360;43.506;1.500;2024-02-21T06:16:57;20.73;;;9.40;;
81896;SDS011;71360;43.506;1.500;2024-02-21T06:19:22;18.37;;;8.50;;
81896;SDS011;71360;43.506;1.500;2024-02-21T06:21:47;19.43;;;8.33;;
81896;SDS011;71360;43.506;1.500;2024-02-21T06:24:13;18.27;;;8.10;;
81896;SDS011;71360;43.506;1.500;2024-02-21T06:26:39;19.25;;;9.43;;
81896;SDS011;71360;43.506;1.500;2024-02-21T06:29:05;18.17;;;9.07;;
81896;SDS011;71360;43.506;1.500;2024-02-21T06:31:31;22.43;;;8.97;;
81896;SDS011;71360;43.506;1.500;2024-02-21T06:33:57;20.37;;;7.53;;
81896;SDS011;71360;43.506;1.500;2024-02-21T06:36:22;15.13;;;8.50;;
81896;SDS011;71360;43.506;1.500;2024-02-21T06:38:48;19.63;;;8.80;;
81896;SDS011;71360;43.506;1.500;2024-02-21T06:41:17;21.15;;;8.45;;
81896;SDS011;71360;43.506;1.500;2024-02-21T06:43:47;17.23;;;8.18;;
81896;SDS011;71360;43.506;1.500;2024-02-21T06:46:22;16.90;;;8.00;;
81896;SDS011;71360;43.506;1.500;2024-02-21T06:48:51;17.15;;;7.60;;
81896;SDS011;71360;43.506;1.500;2024-02-21T06:51:16;16.10;;;8.00;;
81896;SDS011;71360;43.506;1.500;2024-02-21T06:53:42;19.38;;;7.28;;
81896;SDS011;71360;43.506;1.500;2024-02-21T06:56:09;16.58;;;6.15;;
81896;SDS011;71360;43.506;1.500;2024-02-21T06:58:34;18.20;;;6.33;;
81896;SDS011;71360;43.506;1.500;2024-02-21T07:01:00;12.77;;;5.57;;
81896;SDS011;71360;43.506;1.500;2024-02-21T07:03:25;10.60;;;4.60;;
81896;SDS011;71360;43.506;1.500;2024-02-21T07:05:51;12.40;;;5.30;;
81896;SDS011;71360;43.506;1.500;2024-02-21T07:08:16;13.90;;;5.30;;
81896;SDS011;71360;43.506;1.500;2024-02-21T07:10:42;11.73;;;4.60;;
81896;SDS011;71360;43.506;1.500;2024-02-21T07:13:07;18.53;;;5.90;;
81896;SDS011;71360;43.506;1.500;2024-02-21T07:15:33;19.93;;;7.97;;
81896;SDS011;71360;43.506;1.500;2024-02-21T07:17:58;15.87;;;6.93;;
81896;SDS011;71360;43.506;1.500;2024-02-21T07:20:24;15.27;;;7.20;;
81896;SDS011;71360;43.506;1.500;2024-02-21T07:22:50;16.60;;;6.97;;
81896;SDS011;71360;43.506;1.500;2024-02-21T07:25:15;14.27;;;6.47;;
81896;SDS011;71360;43.506;1.500;2024-02-21T07:27:41;15.33;;;6.77;;
81896;SDS011;71360;43.506;1.500;2024-02-21T07:30:08;16.40;;;7.00;;
81896;SDS011;71360;43.506;1.500;2024-02-21T07:32:34;17.67;;;6.40;;
81896;SDS011;71360;43.506;1.500;2024-02-21T07:34:59;12.82;;;5.78;;
81896;SDS011;71360;43.506;1.500;2024-02-21T07:37:25;14.17;;;6.33;;
81896;SDS011;71360;43.506;1.500;2024-02-21T07:39:50;13.63;;;6.20;;
81896;SDS011;71360;43.506;1.500;2024-02-21T07:42:16;13.30;;;5.83;;
81896;SDS011;71360;43.506;1.500;2024-02-21T07:44:41;14.75;;;6.05;;
81896;SDS011;71360;43.506;1.500;2024-02-21T07:47:07;15.27;;;6.20;;
81896;SDS011;71360;43.506;1.500;2024-02-21T07:49:32;12.57;;;5.80;;
81896;SDS011;71360;43.506;1.500;2024-02-21T07:52:00;14.20;;;6.43;;
81896;SDS011;71360;43.506;1.500;2024-02-21T07:54:26;12.65;;;6.07;;
81896;SDS011;71360;43.506;1.500;2024-02-21T07:56:51;14.27;;;6.40;;
81896;SDS011;71360;43.506;1.500;2024-02-21T07:59:17;12.10;;;6.03;;
81896;SDS011;71360;43.506;1.500;2024-02-21T08:01:43;13.32;;;5.78;;
81896;SDS011;71360;43.506;1.500;2024-02-21T08:04:09;13.68;;;5.47;;
81896;SDS011;71360;43.506;1.500;2024-02-21T08:06:35;13.57;;;5.60;;
81896;SDS011;71360;43.506;1.500;2024-02-21T08:09:00;14.10;;;5.43;;
81896;SDS011;71360;43.506;1.500;2024-02-21T08:11:26;12.60;;;5.13;;
81896;SDS011;71360;43.506;1.500;2024-02-21T08:13:51;11.60;;;5.13;;
81896;SDS011;71360;43.506;1.500;2024-02-21T08:16:16;12.30;;;5.53;;
81896;SDS011;71360;43.506;1.500;2024-02-21T08:18:43;12.33;;;5.93;;
81896;SDS011;71360;43.506;1.500;2024-02-21T08:21:09;15.98;;;7.97;;
81896;SDS011;71360;43.506;1.500;2024-02-21T08:23:35;18.13;;;10.80;;
81896;SDS011;71360;43.506;1.500;2024-02-21T08:26:03;24.58;;;15.60;;
81896;SDS011;71360;43.506;1.500;2024-02-21T08:28:29;24.83;;;16.92;;
81896;SDS011;71360;43.506;1.500;2024-02-21T08:30:54;24.90;;;14.37;;
81896;SDS011;71360;43.506;1.500;2024-02-21T08:33:20;18.80;;;11.63;;
81896;SDS011;71360;43.506;1.500;2024-02-21T08:35:49;16.27;;;7.70;;
81896;SDS011;71360;43.506;1.500;2024-02-21T08:38:15;11.15;;;4.85;;
81896;SDS011;71360;43.506;1.500;2024-02-21T08:40:41;12.33;;;4.50;;
81896;SDS011;71360;43.506;1.500;2024-02-21T08:43:07;10.57;;;4.10;;
81896;SDS011;71360;43.506;1.500;2024-02-21T08:45:32;8.50;;;3.30;;
81896;SDS011;71360;43.506;1.500;2024-02-21T08:47:58;10.47;;;4.07;;
81896;SDS011;71360;43.506;1.500;2024-02-21T08:50:23;7.50;;;3.03;;
81896;SDS011;71360;43.506;1.500;2024-02-21T08:52:49;8.88;;;3.10;;
81896;SDS011;71360;43.506;1.500;2024-02-21T08:55:14;6.80;;;2.87;;
81896;SDS011;71360;43.506;1.500;2024-02-21T08:57:40;8.73;;;2.90;;
81896;SDS011;71360;43.506;1.500;2024-02-21T09:00:06;10.13;;;2.90;;
81896;SDS011;71360;43.506;1.500;2024-02-21T09:02:39;10.13;;;2.90;;
81896;SDS011;71360;43.506;1.500;2024-02-21T09:05:06;8.90;;;2.70;;
81896;SDS011;71360;43.506;1.500;2024-02-21T09:07:31;6.00;;;2.25;;
81896;SDS011;71360;43.506;1.500;2024-02-21T09:09:57;6.60;;;2.10;;
81896;SDS011;71360;43.506;1.500;2024-02-21T09:12:22;6.88;;;2.33;;
81896;SDS011;71360;43.506;1.500;2024-02-21T09:14:48;8.23;;;2.50;;
81896;SDS011;71360;43.506;1.500;2024-02-21T09:17:15;8.27;;;2.60;;
81896;SDS011;71360;43.506;1.500;2024-02-21T09:19:42;7.93;;;2.55;;
81896;SDS011;71360;43.506;1.500;2024-02-21T09:22:09;7.83;;;2.33;;
81896;SDS011;71360;43.506;1.500;2024-02-21T09:24:35;7.05;;;2.30;;
81896;SDS011;71360;43.506;1.500;2024-02-21T09:27:00;6.30;;;1.90;;
81896;SDS011;71360;43.506;1.500;2024-02-21T09:29:26;7.40;;;2.90;;
81896;SDS011;71360;43.506;1.500;2024-02-21T09:31:51;8.70;;;3.53;;
81896;SDS011;71360;43.506;1.500;2024-02-21T09:34:17;9.03;;;3.90;;
81896;SDS011;71360;43.506;1.500;2024-02-21T09:36:43;10.73;;;3.47;;
81896;SDS011;71360;43.506;1.500;2024-02-21T09:39:09;6.95;;;3.30;;
81896;SDS011;71360;43.506;1.500;2024-02-21T09:41:39;8.87;;;3.70;;
81896;SDS011;71360;43.506;1.500;2024-02-21T09:44:10;9.25;;;3.78;;
81896;SDS011;71360;43.506;1.500;2024-02-21T09:49:26;6.38;;;3.10;;
81896;SDS011;71360;43.506;1.500;2024-02-21T09:52:01;7.45;;;3.15;;
81896;SDS011;71360;43.506;1.500;2024-02-21T09:54:29;8.63;;;3.27;;
81896;SDS011;71360;43.506;1.500;2024-02-21T09:56:56;8.57;;;2.80;;
81896;SDS011;71360;43.506;1.500;2024-02-21T09:59:21;10.85;;;3.10;;
81896;SDS011;71360;43.506;1.500;2024-02-21T10:01:49;9.77;;;3.17;;
81896;SDS011;71360;43.506;1.500;2024-02-21T10:04:16;8.30;;;2.90;;
81896;SDS011;71360;43.506;1.500;2024-02-21T10:06:41;10.77;;;3.00;;
81896;SDS011;71360;43.506;1.500;2024-02-21T10:09:07;7.07;;;2.80;;
81896;SDS011;71360;43.506;1.500;2024-02-21T10:11:32;8.53;;;3.07;;
81896;SDS011;71360;43.506;1.500;2024-02-21T10:16:30;7.57;;;2.90;;
81896;SDS011;71360;43.506;1.500;2024-02-21T10:18:55;6.17;;;2.90;;
81896;SDS011;71360;43.506;1.500;2024-02-21T10:21:21;7.17;;;3.17;;
81896;SDS011;71360;43.506;1.500;2024-02-21T10:23:50;7.30;;;3.15;;
81896;SDS011;71360;43.506;1.500;2024-02-21T10:26:16;7.13;;;2.70;;
81896;SDS011;71360;43.506;1.500;2024-02-21T10:28:43;9.10;;;2.80;;
81896;SDS011;71360;43.506;1.500;2024-02-21T10:31:10;6.20;;;2.80;;
81896;SDS011;71360;43.506;1.500;2024-02-21T10:33:37;6.85;;;2.58;;
81896;SDS011;71360;43.506;1.500;2024-02-21T10:36:06;9.07;;;2.63;;
81896;SDS011;71360;43.506;1.500;2024-02-21T10:38:33;8.77;;;2.60;;
81896;SDS011;71360;43.506;1.500;2024-02-21T10:40:58;7.77;;;2.57;;
81896;SDS011;71360;43.506;1.500;2024-02-21T10:43:28;8.18;;;2.58;;
81896;SDS011;71360;43.506;1.500;2024-02-21T10:45:59;5.90;;;2.60;;
81896;SDS011;71360;43.506;1.500;2024-02-21T10:48:30;7.03;;;2.40;;
81896;SDS011;71360;43.506;1.500;2024-02-21T10:56:36;7.93;;;2.28;;
81896;SDS011;71360;43.506;1.500;2024-02-21T10:59:05;7.10;;;2.03;;
81896;SDS011;71360;43.506;1.500;2024-02-21T11:01:31;8.00;;;2.00;;
81896;SDS011;71360;43.506;1.500;2024-02-21T11:04:06;7.35;;;1.95;;
81896;SDS011;71360;43.506;1.500;2024-02-21T11:06:34;6.10;;;2.25;;
81896;SDS011;71360;43.506;1.500;2024-02-21T11:11:34;4.97;;;1.80;;
81896;SDS011;71360;43.506;1.500;2024-02-21T11:14:07;6.00;;;1.90;;
81896;SDS011;71360;43.506;1.500;2024-02-21T11:16:39;6.88;;;1.85;;
81896;SDS011;71360;43.506;1.500;2024-02-21T11:19:06;5.50;;;1.70;;
81896;SDS011;71360;43.506;1.500;2024-02-21T11:21:38;4.18;;;1.48;;
81896;SDS011;71360;43.506;1.500;2024-02-21T11:24:06;6.72;;;2.00;;
81896;SDS011;71360;43.506;1.500;2024-02-21T11:26:32;4.10;;;1.60;;
81896;SDS011;71360;43.506;1.500;2024-02-21T11:29:00;5.63;;;1.70;;
81896;SDS011;71360;43.506;1.500;2024-02-21T11:31:38;4.40;;;1.80;;
81896;SDS011;71360;43.506;1.500;2024-02-21T11:34:09;5.00;;;1.70;;
81896;SDS011;71360;43.506;1.500;2024-02-21T11:36:35;7.60;;;1.80;;
81896;SDS011;71360;43.506;1.500;2024-02-21T11:39:04;5.03;;;1.70;;
81896;SDS011;71360;43.506;1.500;2024-02-21T11:41:30;4.73;;;1.70;;
81896;SDS011;71360;43.506;1.500;2024-02-21T11:43:56;5.65;;;1.60;;
81896;SDS011;71360;43.506;1.500;2024-02-21T11:46:22;4.33;;;1.50;;
81896;SDS011;71360;43.506;1.500;2024-02-21T11:48:48;4.35;;;1.52;;
81896;SDS011;71360;43.506;1.500;2024-02-21T11:51:22;4.60;;;1.70;;
81896;SDS011;71360;43.506;1.500;2024-02-21T11:53:50;5.50;;;1.70;;
81896;SDS011;71360;43.506;1.500;2024-02-21T11:56:17;6.90;;;2.20;;
81896;SDS011;71360;43.506;1.500;2024-02-21T11:58:43;5.63;;;1.80;;
81896;SDS011;71360;43.506;1.500;2024-02-21T12:01:08;4.78;;;1.80;;
81896;SDS011;71360;43.506;1.500;2024-02-21T12:03:34;5.27;;;1.87;;
81896;SDS011;71360;43.506;1.500;2024-02-21T12:06:01;4.47;;;1.40;;
81896;SDS011;71360;43.506;1.500;2024-02-21T12:08:28;4.82;;;1.42;;
81896;SDS011;71360;43.506;1.500;2024-02-21T12:11:19;4.30;;;1.30;;
81896;SDS011;71360;43.506;1.500;2024-02-21T12:13:46;3.95;;;1.50;;
81896;SDS011;71360;43.506;1.500;2024-02-21T12:16:14;4.95;;;1.40;;
81896;SDS011;71360;43.506;1.500;2024-02-21T12:18:41;5.00;;;1.48;;
81896;SDS011;71360;43.506;1.500;2024-02-21T12:21:07;3.87;;;1.20;;
81896;SDS011;71360;43.506;1.500;2024-02-21T12:23:32;5.13;;;1.50;;
81896;SDS011;71360;43.506;1.500;2024-02-21T12:25:59;6.03;;;1.50;;
81896;SDS011;71360;43.506;1.500;2024-02-21T12:28:24;5.50;;;1.58;;
81896;SDS011;71360;43.506;1.500;2024-02-21T12:30:51;4.75;;;1.50;;
81896;SDS011;71360;43.506;1.500;2024-02-21T12:33:17;5.05;;;1.30;;
81896;SDS011;71360;43.506;1.500;2024-02-21T12:35:43;3.87;;;1.20;;
81896;SDS011;71360;43.506;1.500;2024-02-21T12:38:08;4.60;;;1.53;;
81896;SDS011;71360;43.506;1.500;2024-02-21T12:40:34;5.07;;;1.48;;
81896;SDS011;71360;43.506;1.500;2024-02-21T12:43:00;5.33;;;1.43;;
81896;SDS011;71360;43.506;1.500;2024-02-21T12:45:28;6.45;;;1.42;;
81896;SDS011;71360;43.506;1.500;2024-02-21T12:47:53;5.22;;;1.50;;
81896;SDS011;71360;43.506;1.500;2024-02-21T12:50:19;4.67;;;1.40;;
81896;SDS011;71360;43.506;1.500;2024-02-21T12:52:45;6.88;;;1.48;;
81896;SDS011;71360;43.506;1.500;2024-02-21T12:55:11;5.00;;;1.40;;
81896;SDS011;71360;43.506;1.500;2024-02-21T12:57:38;6.47;;;1.52;;
81896;SDS011;71360;43.506;1.500;2024-02-21T13:00:05;4.97;;;1.50;;
81896;SDS011;71360;43.506;1.500;2024-02-21T13:02:34;4.57;;;1.50;;
81896;SDS011;71360;43.506;1.500;2024-02-21T13:05:02;4.07;;;1.40;;
81896;SDS011;71360;43.506;1.500;2024-02-21T13:07:31;4.73;;;1.50;;
81896;SDS011;71360;43.506;1.500;2024-02-21T13:09:57;3.92;;;1.33;;
81896;SDS011;71360;43.506;1.500;2024-02-21T13:12:23;4.10;;;1.50;;
81896;SDS011;71360;43.506;1.500;2024-02-21T13:14:48;5.83;;;1.60;;
81896;SDS011;71360;43.506;1.500;2024-02-21T13:17:14;5.70;;;1.53;;
81896;SDS011;71360;43.506;1.500;2024-02-21T13:19:40;5.35;;;1.80;;
81896;SDS011;71360;43.506;1.500;2024-02-21T13:22:05;5.00;;;1.50;;
81896;SDS011;71360;43.506;1.500;2024-02-21T13:24:31;4.93;;;1.40;;
81896;SDS011;71360;43.506;1.500;2024-02-21T13:26:57;4.13;;;1.40;;
81896;SDS011;71360;43.506;1.500;2024-02-21T13:29:22;4.38;;;1.50;;
81896;SDS011;71360;43.506;1.500;2024-02-21T13:31:47;4.93;;;1.50;;
81896;SDS011;71360;43.506;1.500;2024-02-21T13:34:14;4.70;;;1.42;;
81896;SDS011;71360;43.506;1.500;2024-02-21T13:36:40;5.10;;;1.50;;
81896;SDS011;71360;43.506;1.500;2024-02-21T13:39:06;4.13;;;1.30;;
81896;SDS011;71360;43.506;1.500;2024-02-21T13:41:33;5.37;;;1.30;;
81896;SDS011;71360;43.506;1.500;2024-02-21T13:43:58;3.72;;;1.20;;
81896;SDS011;71360;43.506;1.500;2024-02-21T13:46:25;4.75;;;1.23;;
81896;SDS011;71360;43.506;1.500;2024-02-21T13:48:52;4.50;;;1.40;;
81896;SDS011;71360;43.506;1.500;2024-02-21T13:51:27;5.07;;;1.20;;
81896;SDS011;71360;43.506;1.500;2024-02-21T13:53:52;6.40;;;1.60;;
81896;SDS011;71360;43.506;1.500;2024-02-21T13:56:17;4.13;;;1.33;;
81896;SDS011;71360;43.506;1.500;2024-02-21T13:58:43;5.10;;;1.30;;
81896;SDS011;71360;43.506;1.500;2024-02-21T14:01:09;3.92;;;1.58;;
81896;SDS011;71360;43.506;1.500;2024-02-21T14:03:34;4.53;;;1.40;;
81896;SDS011;71360;43.506;1.500;2024-02-21T14:06:00;4.50;;;1.50;;
81896;SDS011;71360;43.506;1.500;2024-02-21T14:08:25;5.05;;;1.70;;
81896;SDS011;71360;43.506;1.500;2024-02-21T14:10:51;5.00;;;1.60;;
81896;SDS011;71360;43.506;1.500;2024-02-21T14:13:16;5.50;;;1.63;;
81896;SDS011;71360;43.506;1.500;2024-02-21T14:15:43;5.53;;;1.52;;
81896;SDS011;71360;43.506;1.500;2024-02-21T14:18:11;4.95;;;1.50;;
81896;SDS011;71360;43.506;1.500;2024-02-21T14:20:38;4.45;;;1.50;;
81896;SDS011;71360;43.506;1.500;2024-02-21T14:23:04;6.30;;;1.60;;
81896;SDS011;71360;43.506;1.500;2024-02-21T14:25:29;4.57;;;1.50;;
81896;SDS011;71360;43.506;1.500;2024-02-21T14:27:55;4.30;;;1.40;;
81896;SDS011;71360;43.506;1.500;2024-02-21T14:30:20;7.50;;;1.50;;
81896;SDS011;71360;43.506;1.500;2024-02-21T14:32:46;5.07;;;1.30;;
81896;SDS011;71360;43.506;1.500;2024-02-21T14:35:11;5.00;;;1.40;;
81896;SDS011;71360;43.506;1.500;2024-02-21T14:37:37;4.00;;;1.17;;
81896;SDS011;71360;43.506;1.500;2024-02-21T14:40:02;4.33;;;1.30;;
81896;SDS011;71360;43.506;1.500;2024-02-21T14:42:28;3.85;;;1.40;;
81896;SDS011;71360;43.506;1.500;2024-02-21T14:44:54;5.00;;;1.50;;
81896;SDS011;71360;43.506;1.500;2024-02-21T14:47:28;4.72;;;1.90;;
81896;SDS011;71360;43.506;1.500;2024-02-21T14:49:57;7.53;;;2.90;;